sensor_id;sensor_type;location;lat;lon;timestamp;P1;durP1;ratioP1;P2;durP2;ratioP2
76405;SDS011;65234;50.044;19.258;2022-12-10T00:01:04;39.75;;;36.75;;
76405;SDS011;65234;50.044;19.258;2022-12-10T00:03:32;39.22;;;36.22;;
76405;SDS011;65234;50.044;19.258;2022-12-10T00:05:59;43.83;;;40.10;;
76405;SDS011;65234;50.044;19.258;2022-12-10T00:08:25;40.88;;;37.65;;
76405;SDS011;65234;50.044;19.258;2022-12-10T00:10:51;42.50;;;38.83;;
76405;SDS011;65234;50.044;19.258;2022-12-10T00:13:17;40.30;;;37.40;;
76405;SDS011;65234;50.044;19.258;2022-12-10T00:15:43;38.33;;;35.10;;
76405;SDS011;65234;50.044;19.258;2022-12-10T00:18:09;38.65;;;35.30;;
76405;SDS011;65234;50.044;19.258;2022-12-10T00:20:45;44.40;;;40.75;;
76405;SDS011;65234;50.044;19.258;2022-12-10T00:23:11;43.22;;;39.65;;
76405;SDS011;65234;50.044;19.258;2022-12-10T00:25:37;41.95;;;38.53;;
76405;SDS011;65234;50.044;19.258;2022-12-10T00:28:02;41.25;;;37.80;;
76405;SDS011;65234;50.044;19.258;2022-12-10T00:30:29;40.60;;;37.80;;
76405;SDS011;65234;50.044;19.258;2022-12-10T00:32:54;38.97;;;36.28;;
76405;SDS011;65234;50.044;19.258;2022-12-10T00:35:20;37.00;;;34.72;;
76405;SDS011;65234;50.044;19.258;2022-12-10T00:37:47;39.45;;;36.72;;
76405;SDS011;65234;50.044;19.258;2022-12-10T00:40:13;37.47;;;34.80;;
76405;SDS011;65234;50.044;19.258;2022-12-10T00:42:39;38.70;;;36.13;;
76405;SDS011;65234;50.044;19.258;2022-12-10T00:45:05;36.72;;;34.20;;
76405;SDS011;65234;50.044;19.258;2022-12-10T00:47:31;36.63;;;34.33;;
76405;SDS011;65234;50.044;19.258;2022-12-10T00:49:57;41.55;;;38.75;;
76405;SDS011;65234;50.044;19.258;2022-12-10T00:52:22;37.22;;;34.75;;
76405;SDS011;65234;50.044;19.258;2022-12-10T00:54:49;38.78;;;36.05;;
76405;SDS011;65234;50.044;19.258;2022-12-10T00:57:15;39.50;;;36.58;;
76405;SDS011;65234;50.044;19.258;2022-12-10T00:59:41;40.60;;;37.80;;
76405;SDS011;65234;50.044;19.258;2022-12-10T01:02:06;38.38;;;35.78;;
76405;SDS011;65234;50.044;19.258;2022-12-10T01:04:32;38.35;;;35.65;;
76405;SDS011;65234;50.044;19.258;2022-12-10T01:06:58;37.00;;;34.65;;
76405;SDS011;65234;50.044;19.258;2022-12-10T01:09:24;34.20;;;32.25;;
76405;SDS011;65234;50.044;19.258;2022-12-10T01:11:53;39.33;;;36.28;;
76405;SDS011;65234;50.044;19.258;2022-12-10T01:14:21;35.67;;;33.47;;
76405;SDS011;65234;50.044;19.258;2022-12-10T01:16:48;36.28;;;34.05;;
76405;SDS011;65234;50.044;19.258;2022-12-10T01:19:14;33.80;;;31.92;;
76405;SDS011;65234;50.044;19.258;2022-12-10T01:21:40;36.80;;;34.85;;
76405;SDS011;65234;50.044;19.258;2022-12-10T01:24:06;36.55;;;34.05;;
76405;SDS011;65234;50.044;19.258;2022-12-10T01:26:33;32.55;;;30.52;;
76405;SDS011;65234;50.044;19.258;2022-12-10T01:29:02;37.10;;;34.70;;
76405;SDS011;65234;50.044;19.258;2022-12-10T01:31:30;40.13;;;35.80;;
76405;SDS011;65234;50.044;19.258;2022-12-10T01:33:57;36.72;;;34.30;;
76405;SDS011;65234;50.044;19.258;2022-12-10T01:36:24;35.28;;;33.08;;
76405;SDS011;65234;50.044;19.258;2022-12-10T01:38:51;34.78;;;32.67;;
76405;SDS011;65234;50.044;19.258;2022-12-10T01:41:18;35.38;;;33.33;;
76405;SDS011;65234;50.044;19.258;2022-12-10T01:43:50;36.17;;;33.85;;
76405;SDS011;65234;50.044;19.258;2022-12-10T01:46:20;35.83;;;33.60;;
76405;SDS011;65234;50.044;19.258;2022-12-10T01:48:47;34.47;;;32.35;;
76405;SDS011;65234;50.044;19.258;2022-12-10T01:51:13;36.67;;;34.22;;
76405;SDS011;65234;50.044;19.258;2022-12-10T01:53:40;35.67;;;33.50;;
76405;SDS011;65234;50.044;19.258;2022-12-10T01:56:08;34.40;;;32.38;;
76405;SDS011;65234;50.044;19.258;2022-12-10T01:58:34;35.65;;;33.45;;
76405;SDS011;65234;50.044;19.258;2022-12-10T02:01:04;36.17;;;33.83;;
76405;SDS011;65234;50.044;19.258;2022-12-10T02:03:38;36.03;;;34.10;;
76405;SDS011;65234;50.044;19.258;2022-12-10T02:06:16;37.30;;;35.33;;
76405;SDS011;65234;50.044;19.258;2022-12-10T02:09:00;35.08;;;32.92;;
76405;SDS011;65234;50.044;19.258;2022-12-10T02:11:32;38.08;;;35.83;;
76405;SDS011;65234;50.044;19.258;2022-12-10T02:14:08;32.58;;;30.83;;
76405;SDS011;65234;50.044;19.258;2022-12-10T02:16:40;36.67;;;34.08;;
76405;SDS011;65234;50.044;19.258;2022-12-10T02:19:13;35.67;;;33.63;;
76405;SDS011;65234;50.044;19.258;2022-12-10T02:21:45;35.72;;;33.70;;
76405;SDS011;65234;50.044;19.258;2022-12-10T02:24:15;34.33;;;32.13;;
76405;SDS011;65234;50.044;19.258;2022-12-10T02:26:44;32.45;;;30.58;;
76405;SDS011;65234;50.044;19.258;2022-12-10T02:29:18;34.55;;;32.47;;
76405;SDS011;65234;50.044;19.258;2022-12-10T02:31:46;37.97;;;35.67;;
76405;SDS011;65234;50.044;19.258;2022-12-10T02:34:15;36.63;;;34.38;;
76405;SDS011;65234;50.044;19.258;2022-12-10T02:36:44;36.38;;;34.17;;
76405;SDS011;65234;50.044;19.258;2022-12-10T02:39:14;36.35;;;34.10;;
76405;SDS011;65234;50.044;19.258;2022-12-10T02:41:45;35.50;;;33.60;;
76405;SDS011;65234;50.044;19.258;2022-12-10T02:44:15;42.17;;;38.35;;
76405;SDS011;65234;50.044;19.258;2022-12-10T02:46:45;36.22;;;33.97;;
76405;SDS011;65234;50.044;19.258;2022-12-10T02:49:14;34.00;;;31.70;;
76405;SDS011;65234;50.044;19.258;2022-12-10T02:51:41;35.47;;;33.00;;
76405;SDS011;65234;50.044;19.258;2022-12-10T02:57:07;33.70;;;31.60;;
76405;SDS011;65234;50.044;19.258;2022-12-10T02:59:44;35.15;;;33.25;;
76405;SDS011;65234;50.044;19.258;2022-12-10T03:02:22;35.22;;;32.45;;
76405;SDS011;65234;50.044;19.258;2022-12-10T03:04:56;35.90;;;33.80;;
76405;SDS011;65234;50.044;19.258;2022-12-10T03:07:27;34.13;;;32.30;;
76405;SDS011;65234;50.044;19.258;2022-12-10T03:10:00;34.35;;;32.40;;
76405;SDS011;65234;50.044;19.258;2022-12-10T03:12:33;34.35;;;32.00;;
76405;SDS011;65234;50.044;19.258;2022-12-10T03:15:06;34.72;;;32.88;;
76405;SDS011;65234;50.044;19.258;2022-12-10T03:17:35;35.75;;;33.67;;
76405;SDS011;65234;50.044;19.258;2022-12-10T03:20:03;35.58;;;33.53;;
76405;SDS011;65234;50.044;19.258;2022-12-10T03:22:32;34.58;;;32.33;;
76405;SDS011;65234;50.044;19.258;2022-12-10T03:25:00;37.88;;;35.20;;
76405;SDS011;65234;50.044;19.258;2022-12-10T03:27:26;36.38;;;34.30;;
76405;SDS011;65234;50.044;19.258;2022-12-10T03:29:55;36.72;;;34.33;;
76405;SDS011;65234;50.044;19.258;2022-12-10T03:32:24;36.30;;;33.63;;
76405;SDS011;65234;50.044;19.258;2022-12-10T03:34:53;34.85;;;33.08;;
76405;SDS011;65234;50.044;19.258;2022-12-10T03:37:22;34.72;;;32.63;;
76405;SDS011;65234;50.044;19.258;2022-12-10T03:39:49;32.80;;;31.20;;
76405;SDS011;65234;50.044;19.258;2022-12-10T03:42:15;36.58;;;33.53;;
76405;SDS011;65234;50.044;19.258;2022-12-10T03:44:41;36.70;;;34.42;;
76405;SDS011;65234;50.044;19.258;2022-12-10T03:47:08;33.50;;;31.70;;
76405;SDS011;65234;50.044;19.258;2022-12-10T03:49:39;35.95;;;33.72;;
76405;SDS011;65234;50.044;19.258;2022-12-10T03:52:05;36.05;;;34.15;;
76405;SDS011;65234;50.044;19.258;2022-12-10T03:54:31;36.92;;;34.67;;
76405;SDS011;65234;50.044;19.258;2022-12-10T03:56:57;33.75;;;31.65;;
76405;SDS011;65234;50.044;19.258;2022-12-10T03:59:23;35.70;;;33.75;;
76405;SDS011;65234;50.044;19.258;2022-12-10T04:01:48;35.35;;;33.20;;
76405;SDS011;65234;50.044;19.258;2022-12-10T04:04:14;32.80;;;30.88;;
76405;SDS011;65234;50.044;19.258;2022-12-10T04:06:42;36.28;;;33.67;;
76405;SDS011;65234;50.044;19.258;2022-12-10T04:09:09;34.47;;;32.65;;
76405;SDS011;65234;50.044;19.258;2022-12-10T04:11:35;33.67;;;31.52;;
76405;SDS011;65234;50.044;19.258;2022-12-10T04:14:02;36.50;;;34.53;;
76405;SDS011;65234;50.044;19.258;2022-12-10T04:16:27;36.58;;;34.55;;
76405;SDS011;65234;50.044;19.258;2022-12-10T04:18:55;34.90;;;32.65;;
76405;SDS011;65234;50.044;19.258;2022-12-10T04:21:23;35.50;;;33.08;;
76405;SDS011;65234;50.044;19.258;2022-12-10T04:23:50;36.03;;;33.60;;
76405;SDS011;65234;50.044;19.258;2022-12-10T04:26:16;33.95;;;32.22;;
76405;SDS011;65234;50.044;19.258;2022-12-10T04:28:42;36.10;;;34.00;;
76405;SDS011;65234;50.044;19.258;2022-12-10T04:31:08;36.45;;;33.63;;
76405;SDS011;65234;50.044;19.258;2022-12-10T04:33:34;34.35;;;32.58;;
76405;SDS011;65234;50.044;19.258;2022-12-10T04:35:59;38.58;;;35.47;;
76405;SDS011;65234;50.044;19.258;2022-12-10T04:38:25;34.20;;;32.05;;
76405;SDS011;65234;50.044;19.258;2022-12-10T04:40:52;36.50;;;34.28;;
76405;SDS011;65234;50.044;19.258;2022-12-10T04:43:18;36.72;;;34.28;;
76405;SDS011;65234;50.044;19.258;2022-12-10T04:45:43;36.95;;;34.85;;
76405;SDS011;65234;50.044;19.258;2022-12-10T04:48:09;35.80;;;33.38;;
76405;SDS011;65234;50.044;19.258;2022-12-10T04:50:35;37.58;;;34.92;;
76405;SDS011;65234;50.044;19.258;2022-12-10T04:53:01;37.30;;;34.83;;
76405;SDS011;65234;50.044;19.258;2022-12-10T04:55:26;37.78;;;35.38;;
76405;SDS011;65234;50.044;19.258;2022-12-10T04:57:53;38.50;;;35.85;;
76405;SDS011;65234;50.044;19.258;2022-12-10T05:00:19;35.53;;;32.83;;
76405;SDS011;65234;50.044;19.258;2022-12-10T05:02:47;37.83;;;34.88;;
76405;SDS011;65234;50.044;19.258;2022-12-10T05:05:13;37.00;;;34.72;;
76405;SDS011;65234;50.044;19.258;2022-12-10T05:07:39;38.03;;;35.53;;
76405;SDS011;65234;50.044;19.258;2022-12-10T05:10:05;38.03;;;35.50;;
76405;SDS011;65234;50.044;19.258;2022-12-10T05:12:31;35.85;;;33.65;;
76405;SDS011;65234;50.044;19.258;2022-12-10T05:14:58;35.35;;;33.17;;
76405;SDS011;65234;50.044;19.258;2022-12-10T05:17:24;35.40;;;33.30;;
76405;SDS011;65234;50.044;19.258;2022-12-10T05:19:50;42.72;;;39.45;;
76405;SDS011;65234;50.044;19.258;2022-12-10T05:22:16;46.88;;;41.80;;
76405;SDS011;65234;50.044;19.258;2022-12-10T05:24:41;44.13;;;40.83;;
76405;SDS011;65234;50.044;19.258;2022-12-10T05:27:07;42.88;;;38.90;;
76405;SDS011;65234;50.044;19.258;2022-12-10T05:29:33;40.63;;;37.58;;
76405;SDS011;65234;50.044;19.258;2022-12-10T05:32:00;40.65;;;36.92;;
76405;SDS011;65234;50.044;19.258;2022-12-10T05:34:27;41.53;;;37.97;;
76405;SDS011;65234;50.044;19.258;2022-12-10T05:36:53;37.15;;;34.47;;
76405;SDS011;65234;50.044;19.258;2022-12-10T05:39:19;41.50;;;37.45;;
76405;SDS011;65234;50.044;19.258;2022-12-10T05:41:44;39.70;;;36.78;;
76405;SDS011;65234;50.044;19.258;2022-12-10T05:44:10;35.45;;;33.08;;
76405;SDS011;65234;50.044;19.258;2022-12-10T05:46:36;35.92;;;33.53;;
76405;SDS011;65234;50.044;19.258;2022-12-10T05:49:04;37.88;;;34.72;;
76405;SDS011;65234;50.044;19.258;2022-12-10T05:51:31;40.67;;;37.92;;
76405;SDS011;65234;50.044;19.258;2022-12-10T05:53:58;42.50;;;38.08;;
76405;SDS011;65234;50.044;19.258;2022-12-10T05:56:26;45.85;;;41.63;;
76405;SDS011;65234;50.044;19.258;2022-12-10T05:58:53;44.92;;;41.33;;
76405;SDS011;65234;50.044;19.258;2022-12-10T06:01:21;44.15;;;40.65;;
76405;SDS011;65234;50.044;19.258;2022-12-10T06:03:48;42.05;;;38.15;;
76405;SDS011;65234;50.044;19.258;2022-12-10T06:06:19;42.13;;;38.45;;
76405;SDS011;65234;50.044;19.258;2022-12-10T06:08:45;42.50;;;39.22;;
76405;SDS011;65234;50.044;19.258;2022-12-10T06:11:11;40.72;;;37.90;;
76405;SDS011;65234;50.044;19.258;2022-12-10T06:13:37;42.17;;;38.67;;
76405;SDS011;65234;50.044;19.258;2022-12-10T06:16:03;42.42;;;39.63;;
76405;SDS011;65234;50.044;19.258;2022-12-10T06:18:30;41.78;;;38.85;;
76405;SDS011;65234;50.044;19.258;2022-12-10T06:20:56;40.40;;;37.35;;
76405;SDS011;65234;50.044;19.258;2022-12-10T06:23:23;41.95;;;38.28;;
76405;SDS011;65234;50.044;19.258;2022-12-10T06:25:49;42.28;;;39.00;;
76405;SDS011;65234;50.044;19.258;2022-12-10T06:28:18;36.97;;;34.60;;
76405;SDS011;65234;50.044;19.258;2022-12-10T06:30:44;37.30;;;33.60;;
76405;SDS011;65234;50.044;19.258;2022-12-10T06:33:09;42.13;;;38.55;;
76405;SDS011;65234;50.044;19.258;2022-12-10T06:35:36;38.00;;;35.50;;
76405;SDS011;65234;50.044;19.258;2022-12-10T06:38:02;40.42;;;37.55;;
76405;SDS011;65234;50.044;19.258;2022-12-10T06:40:29;39.65;;;36.72;;
76405;SDS011;65234;50.044;19.258;2022-12-10T06:42:55;38.53;;;35.80;;
76405;SDS011;65234;50.044;19.258;2022-12-10T06:45:21;36.05;;;33.88;;
76405;SDS011;65234;50.044;19.258;2022-12-10T06:47:46;37.88;;;35.30;;
76405;SDS011;65234;50.044;19.258;2022-12-10T06:50:12;38.08;;;35.38;;
76405;SDS011;65234;50.044;19.258;2022-12-10T06:52:38;38.75;;;35.83;;
76405;SDS011;65234;50.044;19.258;2022-12-10T06:55:04;42.08;;;39.45;;
76405;SDS011;65234;50.044;19.258;2022-12-10T06:57:31;37.55;;;35.05;;
76405;SDS011;65234;50.044;19.258;2022-12-10T06:59:57;38.42;;;35.67;;
76405;SDS011;65234;50.044;19.258;2022-12-10T07:02:23;39.00;;;36.50;;
76405;SDS011;65234;50.044;19.258;2022-12-10T07:04:49;39.40;;;36.47;;
76405;SDS011;65234;50.044;19.258;2022-12-10T07:07:14;38.92;;;35.58;;
76405;SDS011;65234;50.044;19.258;2022-12-10T07:09:40;38.67;;;36.25;;
76405;SDS011;65234;50.044;19.258;2022-12-10T07:12:06;42.03;;;38.28;;
76405;SDS011;65234;50.044;19.258;2022-12-10T07:14:33;43.45;;;39.78;;
76405;SDS011;65234;50.044;19.258;2022-12-10T07:16:59;42.72;;;38.78;;
76405;SDS011;65234;50.044;19.258;2022-12-10T07:19:25;40.05;;;37.15;;
76405;SDS011;65234;50.044;19.258;2022-12-10T07:21:51;44.95;;;41.08;;
76405;SDS011;65234;50.044;19.258;2022-12-10T07:24:17;44.38;;;41.22;;
76405;SDS011;65234;50.044;19.258;2022-12-10T07:26:44;44.35;;;40.42;;
76405;SDS011;65234;50.044;19.258;2022-12-10T07:29:11;43.67;;;40.35;;
76405;SDS011;65234;50.044;19.258;2022-12-10T07:31:40;42.90;;;39.40;;
76405;SDS011;65234;50.044;19.258;2022-12-10T07:34:07;41.05;;;38.22;;
76405;SDS011;65234;50.044;19.258;2022-12-10T07:36:32;44.03;;;40.72;;
76405;SDS011;65234;50.044;19.258;2022-12-10T07:38:58;46.42;;;42.30;;
76405;SDS011;65234;50.044;19.258;2022-12-10T07:41:24;41.47;;;38.35;;
76405;SDS011;65234;50.044;19.258;2022-12-10T07:43:50;46.88;;;42.83;;
76405;SDS011;65234;50.044;19.258;2022-12-10T07:46:17;43.60;;;39.42;;
76405;SDS011;65234;50.044;19.258;2022-12-10T07:48:45;41.88;;;38.97;;
76405;SDS011;65234;50.044;19.258;2022-12-10T07:51:13;42.67;;;39.13;;
76405;SDS011;65234;50.044;19.258;2022-12-10T07:53:39;42.45;;;39.45;;
76405;SDS011;65234;50.044;19.258;2022-12-10T07:56:05;41.92;;;38.75;;
76405;SDS011;65234;50.044;19.258;2022-12-10T07:58:32;42.30;;;38.75;;
76405;SDS011;65234;50.044;19.258;2022-12-10T08:00:58;43.65;;;40.53;;
76405;SDS011;65234;50.044;19.258;2022-12-10T08:03:24;40.97;;;38.38;;
76405;SDS011;65234;50.044;19.258;2022-12-10T08:06:01;39.42;;;36.28;;
76405;SDS011;65234;50.044;19.258;2022-12-10T08:08:27;40.75;;;37.45;;
76405;SDS011;65234;50.044;19.258;2022-12-10T08:10:52;40.80;;;37.83;;
76405;SDS011;65234;50.044;19.258;2022-12-10T08:13:18;40.58;;;37.65;;
76405;SDS011;65234;50.044;19.258;2022-12-10T08:15:44;40.42;;;37.10;;
76405;SDS011;65234;50.044;19.258;2022-12-10T08:18:10;38.42;;;35.80;;
76405;SDS011;65234;50.044;19.258;2022-12-10T08:20:42;42.38;;;39.05;;
76405;SDS011;65234;50.044;19.258;2022-12-10T08:23:09;39.42;;;36.38;;
76405;SDS011;65234;50.044;19.258;2022-12-10T08:25:35;39.55;;;36.90;;
76405;SDS011;65234;50.044;19.258;2022-12-10T08:28:01;40.00;;;37.05;;
76405;SDS011;65234;50.044;19.258;2022-12-10T08:30:26;42.97;;;39.50;;
76405;SDS011;65234;50.044;19.258;2022-12-10T08:32:52;41.30;;;38.70;;
76405;SDS011;65234;50.044;19.258;2022-12-10T08:35:18;42.20;;;39.15;;
76405;SDS011;65234;50.044;19.258;2022-12-10T08:37:44;40.75;;;37.97;;
76405;SDS011;65234;50.044;19.258;2022-12-10T08:40:11;42.92;;;39.97;;
76405;SDS011;65234;50.044;19.258;2022-12-10T08:42:37;38.53;;;36.30;;
76405;SDS011;65234;50.044;19.258;2022-12-10T08:45:03;38.88;;;36.58;;
76405;SDS011;65234;50.044;19.258;2022-12-10T08:47:29;39.70;;;36.75;;
76405;SDS011;65234;50.044;19.258;2022-12-10T08:49:55;38.97;;;36.28;;
76405;SDS011;65234;50.044;19.258;2022-12-10T08:52:21;36.67;;;34.13;;
76405;SDS011;65234;50.044;19.258;2022-12-10T08:54:47;35.55;;;33.58;;
76405;SDS011;65234;50.044;19.258;2022-12-10T08:57:14;38.80;;;35.97;;
76405;SDS011;65234;50.044;19.258;2022-12-10T08:59:39;37.50;;;35.47;;
76405;SDS011;65234;50.044;19.258;2022-12-10T09:02:07;35.08;;;32.88;;
76405;SDS011;65234;50.044;19.258;2022-12-10T09:04:34;38.17;;;35.80;;
76405;SDS011;65234;50.044;19.258;2022-12-10T09:07:00;41.30;;;38.15;;
76405;SDS011;65234;50.044;19.258;2022-12-10T09:09:26;39.65;;;36.65;;
76405;SDS011;65234;50.044;19.258;2022-12-10T09:11:52;40.72;;;38.10;;
76405;SDS011;65234;50.044;19.258;2022-12-10T09:14:19;38.15;;;35.63;;
76405;SDS011;65234;50.044;19.258;2022-12-10T09:16:45;39.90;;;37.25;;
76405;SDS011;65234;50.044;19.258;2022-12-10T09:19:10;38.50;;;35.97;;
76405;SDS011;65234;50.044;19.258;2022-12-10T09:21:36;40.45;;;37.67;;
76405;SDS011;65234;50.044;19.258;2022-12-10T09:24:02;40.40;;;37.72;;
76405;SDS011;65234;50.044;19.258;2022-12-10T09:26:28;40.97;;;37.65;;
76405;SDS011;65234;50.044;19.258;2022-12-10T09:28:54;42.03;;;38.95;;
76405;SDS011;65234;50.044;19.258;2022-12-10T09:31:21;38.88;;;36.13;;
76405;SDS011;65234;50.044;19.258;2022-12-10T09:33:48;35.72;;;33.67;;
76405;SDS011;65234;50.044;19.258;2022-12-10T09:36:15;40.00;;;37.40;;
76405;SDS011;65234;50.044;19.258;2022-12-10T09:38:41;41.10;;;37.90;;
76405;SDS011;65234;50.044;19.258;2022-12-10T09:41:15;39.97;;;37.30;;
76405;SDS011;65234;50.044;19.258;2022-12-10T09:43:55;41.47;;;38.53;;
76405;SDS011;65234;50.044;19.258;2022-12-10T09:46:31;43.65;;;40.60;;
76405;SDS011;65234;50.044;19.258;2022-12-10T09:49:08;41.30;;;38.33;;
76405;SDS011;65234;50.044;19.258;2022-12-10T09:51:42;43.10;;;39.92;;
76405;SDS011;65234;50.044;19.258;2022-12-10T09:54:11;41.85;;;39.47;;
76405;SDS011;65234;50.044;19.258;2022-12-10T09:56:44;41.20;;;38.38;;
76405;SDS011;65234;50.044;19.258;2022-12-10T09:59:11;41.58;;;38.08;;
76405;SDS011;65234;50.044;19.258;2022-12-10T10:01:44;42.72;;;39.53;;
76405;SDS011;65234;50.044;19.258;2022-12-10T10:04:10;41.90;;;39.28;;
76405;SDS011;65234;50.044;19.258;2022-12-10T10:06:36;41.75;;;38.75;;
76405;SDS011;65234;50.044;19.258;2022-12-10T10:09:03;39.28;;;36.70;;
76405;SDS011;65234;50.044;19.258;2022-12-10T10:11:32;40.95;;;38.33;;
76405;SDS011;65234;50.044;19.258;2022-12-10T10:14:01;39.90;;;36.63;;
76405;SDS011;65234;50.044;19.258;2022-12-10T10:16:32;41.08;;;38.33;;
76405;SDS011;65234;50.044;19.258;2022-12-10T10:19:03;42.63;;;39.90;;
76405;SDS011;65234;50.044;19.258;2022-12-10T10:21:32;39.45;;;37.20;;
76405;SDS011;65234;50.044;19.258;2022-12-10T10:24:00;38.88;;;36.60;;
76405;SDS011;65234;50.044;19.258;2022-12-10T10:26:27;39.95;;;37.53;;
76405;SDS011;65234;50.044;19.258;2022-12-10T10:28:55;40.03;;;37.45;;
76405;SDS011;65234;50.044;19.258;2022-12-10T10:31:24;40.03;;;37.70;;
76405;SDS011;65234;50.044;19.258;2022-12-10T10:33:52;39.70;;;37.25;;
76405;SDS011;65234;50.044;19.258;2022-12-10T10:36:23;42.15;;;39.78;;
76405;SDS011;65234;50.044;19.258;2022-12-10T10:38:50;40.83;;;38.03;;
76405;SDS011;65234;50.044;19.258;2022-12-10T10:41:17;41.13;;;38.55;;
76405;SDS011;65234;50.044;19.258;2022-12-10T10:43:43;42.53;;;39.50;;
76405;SDS011;65234;50.044;19.258;2022-12-10T10:46:11;39.17;;;36.58;;
76405;SDS011;65234;50.044;19.258;2022-12-10T10:48:40;43.03;;;40.17;;
76405;SDS011;65234;50.044;19.258;2022-12-10T10:51:07;41.58;;;38.25;;
76405;SDS011;65234;50.044;19.258;2022-12-10T10:53:41;43.80;;;40.95;;
76405;SDS011;65234;50.044;19.258;2022-12-10T10:56:09;43.80;;;40.67;;
76405;SDS011;65234;50.044;19.258;2022-12-10T10:58:44;41.88;;;39.38;;
76405;SDS011;65234;50.044;19.258;2022-12-10T11:03:51;40.95;;;37.45;;
76405;SDS011;65234;50.044;19.258;2022-12-10T11:06:20;39.38;;;36.78;;
76405;SDS011;65234;50.044;19.258;2022-12-10T11:08:49;40.97;;;38.20;;
76405;SDS011;65234;50.044;19.258;2022-12-10T11:11:20;39.45;;;36.75;;
76405;SDS011;65234;50.044;19.258;2022-12-10T11:13:50;41.08;;;38.42;;
76405;SDS011;65234;50.044;19.258;2022-12-10T11:16:18;43.85;;;40.88;;
76405;SDS011;65234;50.044;19.258;2022-12-10T11:18:54;41.40;;;38.25;;
76405;SDS011;65234;50.044;19.258;2022-12-10T11:21:21;40.30;;;37.85;;
76405;SDS011;65234;50.044;19.258;2022-12-10T11:23:51;42.40;;;39.60;;
76405;SDS011;65234;50.044;19.258;2022-12-10T11:26:29;41.67;;;39.00;;
76405;SDS011;65234;50.044;19.258;2022-12-10T11:29:10;43.50;;;40.38;;
76405;SDS011;65234;50.044;19.258;2022-12-10T11:31:47;42.38;;;40.00;;
76405;SDS011;65234;50.044;19.258;2022-12-10T11:34:24;41.42;;;39.00;;
76405;SDS011;65234;50.044;19.258;2022-12-10T11:37:01;43.00;;;40.03;;
76405;SDS011;65234;50.044;19.258;2022-12-10T11:39:44;42.80;;;39.80;;
76405;SDS011;65234;50.044;19.258;2022-12-10T11:42:21;42.25;;;39.63;;
76405;SDS011;65234;50.044;19.258;2022-12-10T11:44:54;42.25;;;39.60;;
76405;SDS011;65234;50.044;19.258;2022-12-10T11:47:37;41.17;;;38.72;;
76405;SDS011;65234;50.044;19.258;2022-12-10T11:50:20;42.22;;;39.17;;
76405;SDS011;65234;50.044;19.258;2022-12-10T11:52:56;43.10;;;40.17;;
76405;SDS011;65234;50.044;19.258;2022-12-10T11:55:46;39.65;;;36.65;;
76405;SDS011;65234;50.044;19.258;2022-12-10T11:58:27;39.80;;;37.45;;
76405;SDS011;65234;50.044;19.258;2022-12-10T12:01:04;42.97;;;39.65;;
76405;SDS011;65234;50.044;19.258;2022-12-10T12:03:42;42.58;;;39.72;;
76405;SDS011;65234;50.044;19.258;2022-12-10T12:06:25;43.70;;;40.53;;
76405;SDS011;65234;50.044;19.258;2022-12-10T12:09:08;42.83;;;39.97;;
76405;SDS011;65234;50.044;19.258;2022-12-10T12:11:54;41.50;;;38.72;;
76405;SDS011;65234;50.044;19.258;2022-12-10T12:14:31;45.65;;;41.97;;
76405;SDS011;65234;50.044;19.258;2022-12-10T12:17:03;42.35;;;39.00;;
76405;SDS011;65234;50.044;19.258;2022-12-10T12:19:36;41.38;;;38.28;;
76405;SDS011;65234;50.044;19.258;2022-12-10T12:22:06;42.22;;;39.25;;
76405;SDS011;65234;50.044;19.258;2022-12-10T12:24:39;40.03;;;37.80;;
76405;SDS011;65234;50.044;19.258;2022-12-10T12:27:09;39.97;;;37.55;;
76405;SDS011;65234;50.044;19.258;2022-12-10T12:29:42;40.13;;;37.53;;
76405;SDS011;65234;50.044;19.258;2022-12-10T12:32:14;43.13;;;40.63;;
76405;SDS011;65234;50.044;19.258;2022-12-10T12:34:46;38.58;;;36.53;;
76405;SDS011;65234;50.044;19.258;2022-12-10T12:37:16;39.20;;;36.85;;
76405;SDS011;65234;50.044;19.258;2022-12-10T12:39:45;44.17;;;41.35;;
76405;SDS011;65234;50.044;19.258;2022-12-10T12:42:19;47.55;;;43.42;;
76405;SDS011;65234;50.044;19.258;2022-12-10T12:44:56;40.92;;;38.05;;
76405;SDS011;65234;50.044;19.258;2022-12-10T12:47:30;39.20;;;36.90;;
76405;SDS011;65234;50.044;19.258;2022-12-10T12:50:03;40.25;;;37.35;;
76405;SDS011;65234;50.044;19.258;2022-12-10T12:52:38;40.22;;;37.30;;
76405;SDS011;65234;50.044;19.258;2022-12-10T12:55:12;40.28;;;36.58;;
76405;SDS011;65234;50.044;19.258;2022-12-10T12:57:44;38.78;;;36.17;;
76405;SDS011;65234;50.044;19.258;2022-12-10T13:00:16;40.35;;;37.10;;
76405;SDS011;65234;50.044;19.258;2022-12-10T13:02:46;40.03;;;37.85;;
76405;SDS011;65234;50.044;19.258;2022-12-10T13:05:21;37.65;;;35.38;;
76405;SDS011;65234;50.044;19.258;2022-12-10T13:10:56;41.10;;;38.60;;
76405;SDS011;65234;50.044;19.258;2022-12-10T13:13:28;43.88;;;41.25;;
76405;SDS011;65234;50.044;19.258;2022-12-10T13:15:56;42.45;;;38.53;;
76405;SDS011;65234;50.044;19.258;2022-12-10T13:19:16;39.05;;;36.47;;
76405;SDS011;65234;50.044;19.258;2022-12-10T13:21:57;39.85;;;36.88;;
76405;SDS011;65234;50.044;19.258;2022-12-10T13:24:43;38.85;;;36.63;;
76405;SDS011;65234;50.044;19.258;2022-12-10T13:27:34;39.67;;;37.28;;
76405;SDS011;65234;50.044;19.258;2022-12-10T13:30:02;39.13;;;36.65;;
76405;SDS011;65234;50.044;19.258;2022-12-10T13:32:52;40.42;;;37.63;;
76405;SDS011;65234;50.044;19.258;2022-12-10T13:35:27;40.72;;;38.13;;
76405;SDS011;65234;50.044;19.258;2022-12-10T13:37:57;43.65;;;40.55;;
76405;SDS011;65234;50.044;19.258;2022-12-10T13:40:36;42.60;;;39.60;;
76405;SDS011;65234;50.044;19.258;2022-12-10T13:43:19;42.60;;;39.72;;
76405;SDS011;65234;50.044;19.258;2022-12-10T13:45:51;40.75;;;38.30;;
76405;SDS011;65234;50.044;19.258;2022-12-10T13:48:52;46.25;;;39.20;;
76405;SDS011;65234;50.044;19.258;2022-12-10T13:51:26;46.38;;;42.03;;
76405;SDS011;65234;50.044;19.258;2022-12-10T13:54:08;38.85;;;36.03;;
76405;SDS011;65234;50.044;19.258;2022-12-10T13:59:29;39.13;;;35.90;;
76405;SDS011;65234;50.044;19.258;2022-12-10T14:02:18;45.17;;;40.97;;
76405;SDS011;65234;50.044;19.258;2022-12-10T14:05:04;45.47;;;41.72;;
76405;SDS011;65234;50.044;19.258;2022-12-10T14:07:48;42.72;;;39.67;;
76405;SDS011;65234;50.044;19.258;2022-12-10T14:10:18;47.85;;;43.13;;
76405;SDS011;65234;50.044;19.258;2022-12-10T14:12:48;46.47;;;42.35;;
76405;SDS011;65234;50.044;19.258;2022-12-10T14:15:15;46.03;;;42.42;;
76405;SDS011;65234;50.044;19.258;2022-12-10T14:17:45;49.67;;;44.53;;
76405;SDS011;65234;50.044;19.258;2022-12-10T14:20:13;42.95;;;39.85;;
76405;SDS011;65234;50.044;19.258;2022-12-10T14:22:43;49.78;;;45.30;;
76405;SDS011;65234;50.044;19.258;2022-12-10T14:25:12;45.88;;;42.20;;
76405;SDS011;65234;50.044;19.258;2022-12-10T14:27:40;45.42;;;41.90;;
76405;SDS011;65234;50.044;19.258;2022-12-10T14:30:13;43.97;;;40.53;;
76405;SDS011;65234;50.044;19.258;2022-12-10T14:32:41;44.42;;;40.72;;